sensor_id;sensor_type;location;lat;lon;timestamp;temperature;humidity
19880;DHT22;10102;50.828;4.416;2023-02-15T00:01:35;6.90;99.90
19880;DHT22;10102;50.828;4.416;2023-02-15T00:04:01;6.90;99.90
19880;DHT22;10102;50.828;4.416;2023-02-15T00:08:54;6.60;99.90
19880;DHT22;10102;50.828;4.416;2023-02-15T00:11:19;6.60;99.90
19880;DHT22;10102;50.828;4.416;2023-02-15T00:14:23;6.80;99.90
19880;DHT22;10102;50.828;4.416;2023-02-15T00:16:51;7.00;99.90
19880;DHT22;10102;50.828;4.416;2023-02-15T00:19:18;6.80;99.90
19880;DHT22;10102;50.828;4.416;2023-02-15T00:21:44;6.90;99.90
19880;DHT22;10102;50.828;4.416;2023-02-15T00:24:12;7.00;99.90
19880;DHT22;10102;50.828;4.416;2023-02-15T00:26:39;7.10;99.90
19880;DHT22;10102;50.828;4.416;2023-02-15T00:29:06;6.90;99.90
19880;DHT22;10102;50.828;4.416;2023-02-15T00:31:33;6.80;99.90
19880;DHT22;10102;50.828;4.416;2023-02-15T00:34:12;6.90;99.90
19880;DHT22;10102;50.828;4.416;2023-02-15T00:36:39;7.00;99.90
19880;DHT22;10102;50.828;4.416;2023-02-15T00:39:05;6.90;99.90
19880;DHT22;10102;50.828;4.416;2023-02-15T00:41:32;6.70;99.90
19880;DHT22;10102;50.828;4.416;2023-02-15T00:43:58;6.40;99.90
19880;DHT22;10102;50.828;4.416;2023-02-15T00:46:23;6.80;99.90
19880;DHT22;10102;50.828;4.416;2023-02-15T00:48:49;6.30;99.90
19880;DHT22;10102;50.828;4.416;2023-02-15T00:53:42;6.60;99.90
19880;DHT22;10102;50.828;4.416;2023-02-15T00:56:09;6.20;99.90
19880;DHT22;10102;50.828;4.416;2023-02-15T01:01:07;6.30;99.90
19880;DHT22;10102;50.828;4.416;2023-02-15T01:03:34;6.40;99.90
19880;DHT22;10102;50.828;4.416;2023-02-15T01:05:59;6.50;99.90
19880;DHT22;10102;50.828;4.416;2023-02-15T01:08:26;6.60;99.90
19880;DHT22;10102;50.828;4.416;2023-02-15T01:10:51;6.50;99.90
19880;DHT22;10102;50.828;4.416;2023-02-15T01:13:17;7.00;99.90
19880;DHT22;10102;50.828;4.416;2023-02-15T01:15:43;7.00;99.90
19880;DHT22;10102;50.828;4.416;2023-02-15T01:18:10;6.60;99.90
19880;DHT22;10102;50.828;4.416;2023-02-15T01:20:38;6.50;99.90
19880;DHT22;10102;50.828;4.416;2023-02-15T01:23:05;6.70;99.90
19880;DHT22;10102;50.828;4.416;2023-02-15T01:25:32;6.60;99.90
19880;DHT22;10102;50.828;4.416;2023-02-15T01:27:58;6.50;99.90
19880;DHT22;10102;50.828;4.416;2023-02-15T01:30:24;6.30;99.90
19880;DHT22;10102;50.828;4.416;2023-02-15T01:32:50;6.20;99.90
19880;DHT22;10102;50.828;4.416;2023-02-15T01:35:15;6.00;99.90
19880;DHT22;10102;50.828;4.416;2023-02-15T01:40:13;6.10;99.90
19880;DHT22;10102;50.828;4.416;2023-02-15T01:42:39;6.20;99.90
19880;DHT22;10102;50.828;4.416;2023-02-15T01:47:48;6.10;99.90
19880;DHT22;10102;50.828;4.416;2023-02-15T01:52:51;6.40;99.90
19880;DHT22;10102;50.828;4.416;2023-02-15T01:55:18;6.30;99.90
19880;DHT22;10102;50.828;4.416;2023-02-15T01:57:45;6.30;99.90
19880;DHT22;10102;50.828;4.416;2023-02-15T02:00:13;6.00;99.90
19880;DHT22;10102;50.828;4.416;2023-02-15T02:02:40;6.10;99.90
19880;DHT22;10102;50.828;4.416;2023-02-15T02:07:40;6.20;99.90
19880;DHT22;10102;50.828;4.416;2023-02-15T02:10:08;6.10;99.90
19880;DHT22;10102;50.828;4.416;2023-02-15T02:12:35;6.10;99.90
19880;DHT22;10102;50.828;4.416;2023-02-15T02:15:03;6.00;99.90
19880;DHT22;10102;50.828;4.416;2023-02-15T02:20:30;5.90;99.90
19880;DHT22;10102;50.828;4.416;2023-02-15T02:31:40;5.40;99.90
19880;DHT22;10102;50.828;4.416;2023-02-15T02:34:21;5.40;99.90
19880;DHT22;10102;50.828;4.416;2023-02-15T02:36:55;5.50;99.90
19880;DHT22;10102;50.828;4.416;2023-02-15T02:39:38;5.10;99.90
19880;DHT22;10102;50.828;4.416;2023-02-15T02:50:07;5.00;99.90
19880;DHT22;10102;50.828;4.416;2023-02-15T02:52:37;5.10;99.90
19880;DHT22;10102;50.828;4.416;2023-02-15T02:55:23;5.20;99.90
19880;DHT22;10102;50.828;4.416;2023-02-15T03:01:22;5.30;99.90
19880;DHT22;10102;50.828;4.416;2023-02-15T03:03:52;5.60;99.90
19880;DHT22;10102;50.828;4.416;2023-02-15T03:06:36;5.30;99.90
19880;DHT22;10102;50.828;4.416;2023-02-15T03:09:19;5.30;99.90
19880;DHT22;10102;50.828;4.416;2023-02-15T03:11:47;5.50;99.90
19880;DHT22;10102;50.828;4.416;2023-02-15T03:14:15;5.20;99.90
19880;DHT22;10102;50.828;4.416;2023-02-15T03:16:43;5.00;99.90
19880;DHT22;10102;50.828;4.416;2023-02-15T03:19:32;4.80;99.90
19880;DHT22;10102;50.828;4.416;2023-02-15T03:22:04;5.40;99.90
19880;DHT22;10102;50.828;4.416;2023-02-15T03:24:49;5.20;99.90
19880;DHT22;10102;50.828;4.416;2023-02-15T03:27:20;5.40;99.90
19880;DHT22;10102;50.828;4.416;2023-02-15T03:29:52;5.10;99.90
19880;DHT22;10102;50.828;4.416;2023-02-15T03:32:19;5.20;99.90
19880;DHT22;10102;50.828;4.416;2023-02-15T03:37:36;5.20;99.90
19880;DHT22;10102;50.828;4.416;2023-02-15T03:40:31;5.30;99.90
19880;DHT22;10102;50.828;4.416;2023-02-15T03:45:49;4.90;99.90
19880;DHT22;10102;50.828;4.416;2023-02-15T03:48:39;5.20;99.90
19880;DHT22;10102;50.828;4.416;2023-02-15T03:51:14;5.30;99.90
19880;DHT22;10102;50.828;4.416;2023-02-15T03:54:04;5.30;99.90
19880;DHT22;10102;50.828;4.416;2023-02-15T03:56:33;5.10;99.90
19880;DHT22;10102;50.828;4.416;2023-02-15T04:02:08;5.00;99.90
19880;DHT22;10102;50.828;4.416;2023-02-15T04:04:45;5.00;99.90
19880;DHT22;10102;50.828;4.416;2023-02-15T04:07:13;4.70;99.90
19880;DHT22;10102;50.828;4.416;2023-02-15T04:09:39;5.10;99.90
19880;DHT22;10102;50.828;4.416;2023-02-15T04:17:35;5.20;99.90
19880;DHT22;10102;50.828;4.416;2023-02-15T04:22:46;4.60;99.90
19880;DHT22;10102;50.828;4.416;2023-02-15T04:25:31;4.70;99.90
19880;DHT22;10102;50.828;4.416;2023-02-15T04:27:57;4.90;99.90
19880;DHT22;10102;50.828;4.416;2023-02-15T04:30:24;4.90;99.90
19880;DHT22;10102;50.828;4.416;2023-02-15T04:32:50;5.10;99.90
19880;DHT22;10102;50.828;4.416;2023-02-15T04:37:43;5.20;99.90
19880;DHT22;10102;50.828;4.416;2023-02-15T04:40:11;5.20;99.90
19880;DHT22;10102;50.828;4.416;2023-02-15T04:42:37;5.10;99.90
19880;DHT22;10102;50.828;4.416;2023-02-15T04:45:03;5.20;99.90
19880;DHT22;10102;50.828;4.416;2023-02-15T04:47:29;5.20;99.90
19880;DHT22;10102;50.828;4.416;2023-02-15T04:49:55;5.10;99.90
19880;DHT22;10102;50.828;4.416;2023-02-15T04:52:21;5.20;99.90
19880;DHT22;10102;50.828;4.416;2023-02-15T04:57:13;5.10;99.90
19880;DHT22;10102;50.828;4.416;2023-02-15T04:59:39;4.70;99.90
19880;DHT22;10102;50.828;4.416;2023-02-15T05:04:31;4.80;99.90
19880;DHT22;10102;50.828;4.416;2023-02-15T05:06:56;4.80;99.90
19880;DHT22;10102;50.828;4.416;2023-02-15T05:09:22;4.70;99.90
19880;DHT22;10102;50.828;4.416;2023-02-15T05:16:39;4.40;99.90
19880;DHT22;10102;50.828;4.416;2023-02-15T05:19:05;4.50;99.90
19880;DHT22;10102;50.828;4.416;2023-02-15T05:21:32;4.40;99.90
19880;DHT22;10102;50.828;4.416;2023-02-15T05:23:59;4.50;99.90
19880;DHT22;10102;50.828;4.416;2023-02-15T05:26:25;3.90;99.90
19880;DHT22;10102;50.828;4.416;2023-02-15T05:29:10;4.60;99.90
19880;DHT22;10102;50.828;4.416;2023-02-15T05:31:36;4.60;99.90
19880;DHT22;10102;50.828;4.416;2023-02-15T05:34:02;4.60;99.90
19880;DHT22;10102;50.828;4.416;2023-02-15T05:38:55;4.60;99.90
19880;DHT22;10102;50.828;4.416;2023-02-15T05:43:47;4.60;99.90
19880;DHT22;10102;50.828;4.416;2023-02-15T05:48:40;4.60;99.90
19880;DHT22;10102;50.828;4.416;2023-02-15T05:51:13;4.50;99.90
19880;DHT22;10102;50.828;4.416;2023-02-15T05:53:41;4.30;99.90
19880;DHT22;10102;50.828;4.416;2023-02-15T05:56:08;4.30;99.90
19880;DHT22;10102;50.828;4.416;2023-02-15T05:58:36;4.40;99.90
19880;DHT22;10102;50.828;4.416;2023-02-15T06:01:14;4.50;99.90
19880;DHT22;10102;50.828;4.416;2023-02-15T06:03:40;4.20;99.90
19880;DHT22;10102;50.828;4.416;2023-02-15T06:06:06;4.30;99.90
19880;DHT22;10102;50.828;4.416;2023-02-15T06:10:58;4.10;99.90
19880;DHT22;10102;50.828;4.416;2023-02-15T06:13:24;4.30;99.90
19880;DHT22;10102;50.828;4.416;2023-02-15T06:20:41;4.30;99.90
19880;DHT22;10102;50.828;4.416;2023-02-15T06:23:07;4.30;99.90
19880;DHT22;10102;50.828;4.416;2023-02-15T06:25:33;4.40;99.90
19880;DHT22;10102;50.828;4.416;2023-02-15T06:27:58;4.40;99.90
19880;DHT22;10102;50.828;4.416;2023-02-15T06:32:50;4.20;99.90
19880;DHT22;10102;50.828;4.416;2023-02-15T06:40:08;4.30;99.90
19880;DHT22;10102;50.828;4.416;2023-02-15T06:42:34;4.20;99.90
19880;DHT22;10102;50.828;4.416;2023-02-15T06:44:59;4.30;99.90
19880;DHT22;10102;50.828;4.416;2023-02-15T06:47:25;4.40;99.90
19880;DHT22;10102;50.828;4.416;2023-02-15T06:57:09;4.00;99.90
19880;DHT22;10102;50.828;4.416;2023-02-15T07:04:27;4.10;99.90
19880;DHT22;10102;50.828;4.416;2023-02-15T07:06:55;4.80;99.90
19880;DHT22;10102;50.828;4.416;2023-02-15T07:11:46;4.50;99.90
19880;DHT22;10102;50.828;4.416;2023-02-15T07:16:57;4.60;99.90
19880;DHT22;10102;50.828;4.416;2023-02-15T07:19:23;4.60;99.90
19880;DHT22;10102;50.828;4.416;2023-02-15T07:24:15;4.20;99.90
19880;DHT22;10102;50.828;4.416;2023-02-15T07:26:40;4.50;99.90
19880;DHT22;10102;50.828;4.416;2023-02-15T07:31:32;4.90;99.90
19880;DHT22;10102;50.828;4.416;2023-02-15T07:38:50;5.00;99.90
19880;DHT22;10102;50.828;4.416;2023-02-15T07:41:15;4.60;99.90
19880;DHT22;10102;50.828;4.416;2023-02-15T07:43:43;4.80;99.90
19880;DHT22;10102;50.828;4.416;2023-02-15T07:46:12;4.90;99.90
19880;DHT22;10102;50.828;4.416;2023-02-15T07:48:39;5.00;99.90
19880;DHT22;10102;50.828;4.416;2023-02-15T07:51:07;5.20;99.90
19880;DHT22;10102;50.828;4.416;2023-02-15T07:53:34;5.30;99.90
19880;DHT22;10102;50.828;4.416;2023-02-15T07:56:02;5.30;99.90
19880;DHT22;10102;50.828;4.416;2023-02-15T08:01:13;4.90;99.90
19880;DHT22;10102;50.828;4.416;2023-02-15T08:06:06;5.40;99.90
19880;DHT22;10102;50.828;4.416;2023-02-15T08:08:33;5.40;99.90
19880;DHT22;10102;50.828;4.416;2023-02-15T08:13:45;5.60;99.90
19880;DHT22;10102;50.828;4.416;2023-02-15T08:16:39;5.60;99.90
19880;DHT22;10102;50.828;4.416;2023-02-15T08:19:06;5.50;99.90
19880;DHT22;10102;50.828;4.416;2023-02-15T08:21:34;5.70;99.90
19880;DHT22;10102;50.828;4.416;2023-02-15T08:26:27;6.00;99.90
19880;DHT22;10102;50.828;4.416;2023-02-15T08:28:53;6.20;99.90
19880;DHT22;10102;50.828;4.416;2023-02-15T08:31:19;6.30;99.90
19880;DHT22;10102;50.828;4.416;2023-02-15T08:33:46;6.50;99.90
19880;DHT22;10102;50.828;4.416;2023-02-15T08:36:15;6.60;99.90
19880;DHT22;10102;50.828;4.416;2023-02-15T08:38:42;6.80;99.90
19880;DHT22;10102;50.828;4.416;2023-02-15T08:43:42;7.10;99.90
19880;DHT22;10102;50.828;4.416;2023-02-15T08:46:08;7.20;99.90
19880;DHT22;10102;50.828;4.416;2023-02-15T08:48:34;7.50;99.90
19880;DHT22;10102;50.828;4.416;2023-02-15T08:51:10;7.60;99.90
19880;DHT22;10102;50.828;4.416;2023-02-15T08:53:37;7.80;99.90
19880;DHT22;10102;50.828;4.416;2023-02-15T08:56:04;7.60;99.90
19880;DHT22;10102;50.828;4.416;2023-02-15T09:00:57;8.20;99.90
19880;DHT22;10102;50.828;4.416;2023-02-15T09:05:49;8.50;99.90
19880;DHT22;10102;50.828;4.416;2023-02-15T09:08:15;8.70;99.90
19880;DHT22;10102;50.828;4.416;2023-02-15T09:10:40;8.40;99.90
19880;DHT22;10102;50.828;4.416;2023-02-15T09:13:06;8.90;99.90
19880;DHT22;10102;50.828;4.416;2023-02-15T09:17:58;9.20;99.90
19880;DHT22;10102;50.828;4.416;2023-02-15T09:25:23;9.60;99.90
19880;DHT22;10102;50.828;4.416;2023-02-15T09:27:49;10.10;99.90
19880;DHT22;10102;50.828;4.416;2023-02-15T09:30:14;9.80;99.90
19880;DHT22;10102;50.828;4.416;2023-02-15T09:35:06;9.70;99.90
19880;DHT22;10102;50.828;4.416;2023-02-15T09:42:49;10.20;99.90
19880;DHT22;10102;50.828;4.416;2023-02-15T09:45:31;10.40;99.90
19880;DHT22;10102;50.828;4.416;2023-02-15T09:48:12;10.40;99.90
19880;DHT22;10102;50.828;4.416;2023-02-15T09:53:53;10.40;99.90
19880;DHT22;10102;50.828;4.416;2023-02-15T09:56:32;10.90;99.90
19880;DHT22;10102;50.828;4.416;2023-02-15T10:04:32;11.00;99.90
19880;DHT22;10102;50.828;4.416;2023-02-15T10:15:39;12.20;99.90
19880;DHT22;10102;50.828;4.416;2023-02-15T10:21:17;12.80;99.90
19880;DHT22;10102;50.828;4.416;2023-02-15T10:26:34;13.40;99.90
19880;DHT22;10102;50.828;4.416;2023-02-15T10:29:30;14.10;99.90
19880;DHT22;10102;50.828;4.416;2023-02-15T10:35:14;13.70;99.90
19880;DHT22;10102;50.828;4.416;2023-02-15T10:42:59;14.80;99.90
19880;DHT22;10102;50.828;4.416;2023-02-15T10:51:06;18.00;99.90
19880;DHT22;10102;50.828;4.416;2023-02-15T10:53:57;19.10;99.90
19880;DHT22;10102;50.828;4.416;2023-02-15T10:59:06;20.60;99.90
19880;DHT22;10102;50.828;4.416;2023-02-15T11:01:52;20.60;99.90
19880;DHT22;10102;50.828;4.416;2023-02-15T11:12:35;21.60;99.90
19880;DHT22;10102;50.828;4.416;2023-02-15T11:15:02;21.90;99.90
19880;DHT22;10102;50.828;4.416;2023-02-15T11:17:41;22.00;99.90
19880;DHT22;10102;50.828;4.416;2023-02-15T11:20:37;22.70;99.90
19880;DHT22;10102;50.828;4.416;2023-02-15T11:23:01;23.10;99.60
19880;DHT22;10102;50.828;4.416;2023-02-15T11:25:32;21.60;99.90
19880;DHT22;10102;50.828;4.416;2023-02-15T11:28:03;21.70;99.70
19880;DHT22;10102;50.828;4.416;2023-02-15T11:30:40;21.20;99.90
19880;DHT22;10102;50.828;4.416;2023-02-15T11:33:17;21.30;99.90
19880;DHT22;10102;50.828;4.416;2023-02-15T11:35:50;21.40;99.90
19880;DHT22;10102;50.828;4.416;2023-02-15T11:38:22;21.60;99.90
19880;DHT22;10102;50.828;4.416;2023-02-15T11:43:53;23.20;97.80
19880;DHT22;10102;50.828;4.416;2023-02-15T11:46:19;23.60;96.20
19880;DHT22;10102;50.828;4.416;2023-02-15T11:48:47;23.60;94.90
19880;DHT22;10102;50.828;4.416;2023-02-15T11:51:16;23.50;99.90
19880;DHT22;10102;50.828;4.416;2023-02-15T11:53:43;22.00;99.90
19880;DHT22;10102;50.828;4.416;2023-02-15T11:56:16;23.40;96.00
19880;DHT22;10102;50.828;4.416;2023-02-15T11:59:12;23.60;95.50
19880;DHT22;10102;50.828;4.416;2023-02-15T12:01:42;23.50;99.90
19880;DHT22;10102;50.828;4.416;2023-02-15T12:07:17;24.10;93.90
19880;DHT22;10102;50.828;4.416;2023-02-15T12:09:58;24.00;99.90
19880;DHT22;10102;50.828;4.416;2023-02-15T12:12:31;23.50;99.90
19880;DHT22;10102;50.828;4.416;2023-02-15T12:17:29;22.20;99.90
19880;DHT22;10102;50.828;4.416;2023-02-15T12:23:03;20.90;99.90
19880;DHT22;10102;50.828;4.416;2023-02-15T12:25:41;20.40;99.90
19880;DHT22;10102;50.828;4.416;2023-02-15T12:28:40;19.90;98.40
19880;DHT22;10102;50.828;4.416;2023-02-15T12:31:19;19.70;99.90
19880;DHT22;10102;50.828;4.416;2023-02-15T12:33:45;20.00;99.90
19880;DHT22;10102;50.828;4.416;2023-02-15T12:36:18;21.20;99.90
19880;DHT22;10102;50.828;4.416;2023-02-15T12:39:03;22.00;99.90
19880;DHT22;10102;50.828;4.416;2023-02-15T12:41:29;22.20;99.90
19880;DHT22;10102;50.828;4.416;2023-02-15T12:44:16;22.60;99.90
19880;DHT22;10102;50.828;4.416;2023-02-15T12:47:05;23.60;99.90
19880;DHT22;10102;50.828;4.416;2023-02-15T12:49:39;25.10;99.70
19880;DHT22;10102;50.828;4.416;2023-02-15T12:52:19;25.00;99.30
19880;DHT22;10102;50.828;4.416;2023-02-15T12:54:48;25.10;92.70
19880;DHT22;10102;50.828;4.416;2023-02-15T12:57:22;25.40;98.10
19880;DHT22;10102;50.828;4.416;2023-02-15T12:59:50;25.10;98.00
19880;DHT22;10102;50.828;4.416;2023-02-15T13:02:30;24.90;97.70
19880;DHT22;10102;50.828;4.416;2023-02-15T13:05:17;24.00;99.20
19880;DHT22;10102;50.828;4.416;2023-02-15T13:07:53;22.50;99.90
19880;DHT22;10102;50.828;4.416;2023-02-15T13:11:10;22.40;93.90
19880;DHT22;10102;50.828;4.416;2023-02-15T13:13:18;20.70;99.90
19880;DHT22;10102;50.828;4.416;2023-02-15T13:15:49;20.00;99.90
19880;DHT22;10102;50.828;4.416;2023-02-15T13:18:21;19.90;97.80
19880;DHT22;10102;50.828;4.416;2023-02-15T13:20:51;19.20;99.90
19880;DHT22;10102;50.828;4.416;2023-02-15T13:23:26;18.50;98.60
19880;DHT22;10102;50.828;4.416;2023-02-15T13:25:58;18.60;99.80
19880;DHT22;10102;50.828;4.416;2023-02-15T13:28:49;18.40;99.90
19880;DHT22;10102;50.828;4.416;2023-02-15T13:31:15;18.80;99.90
19880;DHT22;10102;50.828;4.416;2023-02-15T13:33:49;18.60;99.90
19880;DHT22;10102;50.828;4.416;2023-02-15T13:36:38;18.50;99.90
19880;DHT22;10102;50.828;4.416;2023-02-15T14:15:44;17.00;99.90
19880;DHT22;10102;50.828;4.416;2023-02-15T14:26:14;16.50;99.90
19880;DHT22;10102;50.828;4.416;2023-02-15T14:28:54;16.50;99.90
19880;DHT22;10102;50.828;4.416;2023-02-15T14:31:30;16.40;99.90
19880;DHT22;10102;50.828;4.416;2023-02-15T14:33:58;16.30;99.90
19880;DHT22;10102;50.828;4.416;2023-02-15T14:36:25;16.40;99.90
19880;DHT22;10102;50.828;4.416;2023-02-15T14:41:51;16.00;99.90
19880;DHT22;10102;50.828;4.416;2023-02-15T14:44:36;16.10;99.90
19880;DHT22;10102;50.828;4.416;2023-02-15T14:47:22;16.20;99.90
19880;DHT22;10102;50.828;4.416;2023-02-15T14:49:50;16.00;99.90
19880;DHT22;10102;50.828;4.416;2023-02-15T14:52:16;15.90;99.90
19880;DHT22;10102;50.828;4.416;2023-02-15T15:04:55;15.90;99.90
19880;DHT22;10102;50.828;4.416;2023-02-15T15:10:34;15.30;99.90
19880;DHT22;10102;50.828;4.416;2023-02-15T15:12:54;15.50;99.90
19880;DHT22;10102;50.828;4.416;2023-02-15T15:31:27;15.30;99.90
19880;DHT22;10102;50.828;4.416;2023-02-15T15:39:39;15.10;99.90
19880;DHT22;10102;50.828;4.416;2023-02-15T15:49:49;15.00;99.90
19880;DHT22;10102;50.828;4.416;2023-02-15T15:52:19;14.90;99.90
19880;DHT22;10102;50.828;4.416;2023-02-15T15:54:48;14.80;99.90
19880;DHT22;10102;50.828;4.416;2023-02-15T15:57:28;14.70;99.90
19880;DHT22;10102;50.828;4.416;2023-02-15T15:59:56;14.60;99.90
19880;DHT22;10102;50.828;4.416;2023-02-15T16:02:25;14.70;99.90
19880;DHT22;10102;50.828;4.416;2023-02-15T16:04:51;14.40;99.90
19880;DHT22;10102;50.828;4.416;2023-02-15T16:10:06;14.20;99.90
19880;DHT22;10102;50.828;4.416;2023-02-15T16:12:35;13.90;99.90
19880;DHT22;10102;50.828;4.416;2023-02-15T16:15:25;14.00;99.90
19880;DHT22;10102;50.828;4.416;2023-02-15T16:17:57;13.90;99.90
19880;DHT22;10102;50.828;4.416;2023-02-15T16:20:35;13.90;99.90
19880;DHT22;10102;50.828;4.416;2023-02-15T16:28:16;14.00;99.90
19880;DHT22;10102;50.828;4.416;2023-02-15T16:30:44;13.60;99.90
19880;DHT22;10102;50.828;4.416;2023-02-15T16:33:15;13.60;99.90
19880;DHT22;10102;50.828;4.416;2023-02-15T16:36:01;13.60;99.90
19880;DHT22;10102;50.828;4.416;2023-02-15T16:41:16;13.20;99.90
19880;DHT22;10102;50.828;4.416;2023-02-15T16:43:46;13.40;99.90
19880;DHT22;10102;50.828;4.416;2023-02-15T16:46:20;13.40;99.90
19880;DHT22;10102;50.828;4.416;2023-02-15T16:48:51;13.10;99.90
19880;DHT22;10102;50.828;4.416;2023-02-15T16:51:24;13.20;99.90
19880;DHT22;10102;50.828;4.416;2023-02-15T16:53:52;13.10;99.90
19880;DHT22;10102;50.828;4.416;2023-02-15T16:56:24;13.00;99.90
19880;DHT22;10102;50.828;4.416;2023-02-15T16:58:52;12.90;99.90
19880;DHT22;10102;50.828;4.416;2023-02-15T17:01:22;12.80;99.90
19880;DHT22;10102;50.828;4.416;2023-02-15T17:03:50;13.00;99.90
19880;DHT22;10102;50.828;4.416;2023-02-15T17:06:23;12.80;99.90
19880;DHT22;10102;50.828;4.416;2023-02-15T17:08:52;12.70;99.90
19880;DHT22;10102;50.828;4.416;2023-02-15T17:11:23;12.70;99.90
19880;DHT22;10102;50.828;4.416;2023-02-15T17:16:50;12.50;99.90
19880;DHT22;10102;50.828;4.416;2023-02-15T17:19:23;12.50;99.90
19880;DHT22;10102;50.828;4.416;2023-02-15T17:21:58;12.40;99.90
19880;DHT22;10102;50.828;4.416;2023-02-15T17:24:39;12.50;99.90
19880;DHT22;10102;50.828;4.416;2023-02-15T17:27:12;12.40;99.90
19880;DHT22;10102;50.828;4.416;2023-02-15T17:29:43;12.30;99.90
19880;DHT22;10102;50.828;4.416;2023-02-15T17:32:17;12.30;99.90
19880;DHT22;10102;50.828;4.416;2023-02-15T17:35:05;12.20;99.90
19880;DHT22;10102;50.828;4.416;2023-02-15T17:40:24;12.20;99.90
19880;DHT22;10102;50.828;4.416;2023-02-15T17:42:50;12.30;99.90
19880;DHT22;10102;50.828;4.416;2023-02-15T17:45:16;11.90;99.90
19880;DHT22;10102;50.828;4.416;2023-02-15T17:47:47;12.00;99.90
19880;DHT22;10102;50.828;4.416;2023-02-15T17:50:22;12.00;99.90
19880;DHT22;10102;50.828;4.416;2023-02-15T17:52:48;12.00;99.90
19880;DHT22;10102;50.828;4.416;2023-02-15T17:55:17;12.20;99.90
19880;DHT22;10102;50.828;4.416;2023-02-15T17:58:04;11.80;99.90
19880;DHT22;10102;50.828;4.416;2023-02-15T18:00:31;11.90;99.90
19880;DHT22;10102;50.828;4.416;2023-02-15T18:03:16;11.80;99.90
19880;DHT22;10102;50.828;4.416;2023-02-15T18:06:00;11.90;99.90
19880;DHT22;10102;50.828;4.416;2023-02-15T18:14:09;11.90;99.90
19880;DHT22;10102;50.828;4.416;2023-02-15T18:16:40;11.80;99.90
19880;DHT22;10102;50.828;4.416;2023-02-15T18:19:26;11.90;99.90
19880;DHT22;10102;50.828;4.416;2023-02-15T18:21:52;11.80;99.90
19880;DHT22;10102;50.828;4.416;2023-02-15T18:24:25;11.70;99.90
19880;DHT22;10102;50.828;4.416;2023-02-15T18:26:54;11.60;99.90
19880;DHT22;10102;50.828;4.416;2023-02-15T18:29:20;11.70;99.90
19880;DHT22;10102;50.828;4.416;2023-02-15T18:31:48;11.70;99.90
19880;DHT22;10102;50.828;4.416;2023-02-15T18:34:33;11.70;99.90
19880;DHT22;10102;50.828;4.416;2023-02-15T18:37:01;11.60;99.90
19880;DHT22;10102;50.828;4.416;2023-02-15T18:42:08;11.60;99.90
19880;DHT22;10102;50.828;4.416;2023-02-15T18:44:38;11.70;99.90
19880;DHT22;10102;50.828;4.416;2023-02-15T18:47:04;11.60;99.90
19880;DHT22;10102;50.828;4.416;2023-02-15T18:49:30;11.60;99.90
19880;DHT22;10102;50.828;4.416;2023-02-15T18:51:56;11.60;99.90
19880;DHT22;10102;50.828;4.416;2023-02-15T18:54:22;11.50;99.90
19880;DHT22;10102;50.828;4.416;2023-02-15T18:56:57;11.60;99.90
19880;DHT22;10102;50.828;4.416;2023-02-15T18:59:24;11.50;99.90
19880;DHT22;10102;50.828;4.416;2023-02-15T19:01:51;11.50;99.90
19880;DHT22;10102;50.828;4.416;2023-02-15T19:04:17;11.50;99.90
19880;DHT22;10102;50.828;4.416;2023-02-15T19:06:47;11.60;99.90
19880;DHT22;10102;50.828;4.416;2023-02-15T19:09:15;11.40;99.90
19880;DHT22;10102;50.828;4.416;2023-02-15T19:11:48;10.90;99.90
19880;DHT22;10102;50.828;4.416;2023-02-15T19:14:29;11.20;99.90
19880;DHT22;10102;50.828;4.416;2023-02-15T19:16:56;11.40;99.90
19880;DHT22;10102;50.828;4.416;2023-02-15T19:19:22;11.10;99.90
19880;DHT22;10102;50.828;4.416;2023-02-15T19:21:48;10.90;99.90
19880;DHT22;10102;50.828;4.416;2023-02-15T19:24:24;11.30;99.90
19880;DHT22;10102;50.828;4.416;2023-02-15T19:26:53;11.00;99.90
19880;DHT22;10102;50.828;4.416;2023-02-15T19:29:24;11.00;99.90
19880;DHT22;10102;50.828;4.416;2023-02-15T19:31:50;10.90;99.90
19880;DHT22;10102;50.828;4.416;2023-02-15T19:34:17;11.10;99.90
19880;DHT22;10102;50.828;4.416;2023-02-15T19:36:45;11.00;99.90
19880;DHT22;10102;50.828;4.416;2023-02-15T19:41:48;10.80;99.90
19880;DHT22;10102;50.828;4.416;2023-02-15T19:44:14;10.80;99.90
19880;DHT22;10102;50.828;4.416;2023-02-15T19:46:40;10.90;99.90
19880;DHT22;10102;50.828;4.416;2023-02-15T19:49:07;10.80;99.90
19880;DHT22;10102;50.828;4.416;2023-02-15T19:51:34;10.90;99.90
19880;DHT22;10102;50.828;4.416;2023-02-15T19:54:00;10.50;99.90
19880;DHT22;10102;50.828;4.416;2023-02-15T19:56:26;10.80;99.90
19880;DHT22;10102;50.828;4.416;2023-02-15T19:58:52;10.90;99.90
19880;DHT22;10102;50.828;4.416;2023-02-15T20:01:19;10.70;99.90
19880;DHT22;10102;50.828;4.416;2023-02-15T20:03:47;10.70;99.90
19880;DHT22;10102;50.828;4.416;2023-02-15T20:06:16;10.60;99.90
19880;DHT22;10102;50.828;4.416;2023-02-15T20:08:42;10.60;99.90
19880;DHT22;10102;50.828;4.416;2023-02-15T20:11:12;10.70;99.90
19880;DHT22;10102;50.828;4.416;2023-02-15T20:16:05;10.60;99.90
19880;DHT22;10102;50.828;4.416;2023-02-15T20:18:35;10.60;99.90
19880;DHT22;10102;50.828;4.416;2023-02-15T20:21:01;10.70;99.90
19880;DHT22;10102;50.828;4.416;2023-02-15T20:25:54;10.50;99.90
19880;DHT22;10102;50.828;4.416;2023-02-15T20:28:23;10.50;99.90
19880;DHT22;10102;50.828;4.416;2023-02-15T20:30:50;10.50;99.90
19880;DHT22;10102;50.828;4.416;2023-02-15T20:33:16;10.90;99.90
19880;DHT22;10102;50.828;4.416;2023-02-15T20:35:44;10.40;99.90
19880;DHT22;10102;50.828;4.416;2023-02-15T20:38:30;10.30;99.90
19880;DHT22;10102;50.828;4.416;2023-02-15T20:40:58;10.30;99.90
19880;DHT22;10102;50.828;4.416;2023-02-15T20:43:43;10.40;99.90
19880;DHT22;10102;50.828;4.416;2023-02-15T20:46:09;10.30;99.90
19880;DHT22;10102;50.828;4.416;2023-02-15T20:48:35;10.30;99.90
19880;DHT22;10102;50.828;4.416;2023-02-15T20:51:02;10.20;99.90
19880;DHT22;10102;50.828;4.416;2023-02-15T20:53:28;10.30;99.90
19880;DHT22;10102;50.828;4.416;2023-02-15T20:55:55;10.20;99.90
19880;DHT22;10102;50.828;4.416;2023-02-15T20:58:28;10.10;99.90
19880;DHT22;10102;50.828;4.416;2023-02-15T21:00:56;10.00;99.90
19880;DHT22;10102;50.828;4.416;2023-02-15T21:03:24;10.20;99.90
19880;DHT22;10102;50.828;4.416;2023-02-15T21:05:56;10.20;99.90
19880;DHT22;10102;50.828;4.416;2023-02-15T21:08:22;10.10;99.90
19880;DHT22;10102;50.828;4.416;2023-02-15T21:10:50;10.10;99.90
19880;DHT22;10102;50.828;4.416;2023-02-15T21:13:28;10.20;99.90
19880;DHT22;10102;50.828;4.416;2023-02-15T21:15:55;10.00;99.90
19880;DHT22;10102;50.828;4.416;2023-02-15T21:18:30;10.00;99.90
19880;DHT22;10102;50.828;4.416;2023-02-15T21:20:58;9.90;99.90
19880;DHT22;10102;50.828;4.416;2023-02-15T21:23:33;9.80;99.90
19880;DHT22;10102;50.828;4.416;2023-02-15T21:26:00;9.70;99.90
19880;DHT22;10102;50.828;4.416;2023-02-15T21:28:27;9.80;99.90
19880;DHT22;10102;50.828;4.416;2023-02-15T21:30:54;9.80;99.90
19880;DHT22;10102;50.828;4.416;2023-02-15T21:33:24;9.80;99.90